createdAt,value
2017-11-22T00:00:23.924Z,20.23
2017-11-22T00:02:53.496Z,18.77
2017-11-22T00:05:23.066Z,19.30
2017-11-22T00:07:52.675Z,19.03
2017-11-22T00:10:22.252Z,19.10
2017-11-22T00:12:51.084Z,18.50
2017-11-22T00:15:19.972Z,20.00
2017-11-22T00:17:48.821Z,19.33
2017-11-22T00:20:17.648Z,17.80
2017-11-22T00:22:46.496Z,18.20
2017-11-22T00:25:15.847Z,17.27
2017-11-22T00:27:44.678Z,17.10
2017-11-22T00:30:13.515Z,16.27
2017-11-22T00:32:42.423Z,16.67
2017-11-22T00:35:11.307Z,15.47
2017-11-22T00:37:40.199Z,16.13
2017-11-22T00:40:09.096Z,15.63
2017-11-22T00:42:37.929Z,14.97
2017-11-22T00:45:06.778Z,15.93
2017-11-22T00:47:35.635Z,14.30
2017-11-22T00:50:04.469Z,15.73
2017-11-22T00:52:33.334Z,14.17
2017-11-22T00:55:02.162Z,14.57
2017-11-22T00:57:31.003Z,15.20
2017-11-22T00:59:59.842Z,14.70
2017-11-22T01:02:28.685Z,16.10
2017-11-22T01:04:57.588Z,14.90
2017-11-22T01:07:26.428Z,15.57
2017-11-22T01:09:55.261Z,14.90
2017-11-22T01:12:24.836Z,14.37
2017-11-22T01:14:54.464Z,15.40
2017-11-22T01:17:24.064Z,14.40
2017-11-22T01:19:53.696Z,13.07
2017-11-22T01:22:22.546Z,14.57
2017-11-22T01:24:51.377Z,14.50
2017-11-22T01:27:20.280Z,30.67
2017-11-22T01:29:49.166Z,16.00
2017-11-22T01:32:18.058Z,15.80
2017-11-22T01:34:46.945Z,14.23
2017-11-22T01:37:15.783Z,13.23
2017-11-22T01:39:44.617Z,13.27
2017-11-22T01:42:13.451Z,13.47
2017-11-22T01:44:42.290Z,12.70
2017-11-22T01:47:11.204Z,13.20
2017-11-22T01:49:40.083Z,13.57
2017-11-22T01:52:08.973Z,15.20
2017-11-22T01:54:37.799Z,14.70
2017-11-22T01:57:06.627Z,12.53
2017-11-22T01:59:35.547Z,13.47
2017-11-22T02:02:04.441Z,13.17
2017-11-22T02:04:33.359Z,13.93
2017-11-22T02:07:02.232Z,12.90
2017-11-22T02:09:31.112Z,12.77
2017-11-22T02:11:59.944Z,13.90
2017-11-22T02:14:28.905Z,12.20
2017-11-22T02:16:57.784Z,13.73
2017-11-22T02:19:26.619Z,14.30
2017-11-22T02:21:56.207Z,13.40
2017-11-22T02:24:25.787Z,12.40
2017-11-22T02:26:55.363Z,13.80
2017-11-22T02:29:24.952Z,13.07
2017-11-22T02:31:53.776Z,13.30
2017-11-22T02:34:22.607Z,13.20
2017-11-22T02:36:51.452Z,13.80
2017-11-22T02:39:20.367Z,13.40
2017-11-22T02:41:49.263Z,13.13
2017-11-22T02:44:18.109Z,12.60
2017-11-22T02:46:46.936Z,12.90
2017-11-22T02:49:15.771Z,12.80
2017-11-22T02:51:44.621Z,11.80
2017-11-22T02:54:13.504Z,11.93
2017-11-22T02:56:42.415Z,12.53
2017-11-22T02:59:11.261Z,12.37
2017-11-22T03:01:40.091Z,11.63
2017-11-22T03:04:08.980Z,12.20
2017-11-22T03:06:37.836Z,12.40
2017-11-22T03:09:06.672Z,13.00
2017-11-22T03:11:35.504Z,12.70
2017-11-22T03:14:04.349Z,12.00
2017-11-22T03:16:33.179Z,13.00
2017-11-22T03:19:02.104Z,11.73
2017-11-22T03:21:30.938Z,13.07
2017-11-22T03:23:59.775Z,12.30
2017-11-22T03:26:28.607Z,11.80
2017-11-22T03:28:57.895Z,11.52
2017-11-22T03:31:27.483Z,11.90
2017-11-22T03:33:57.063Z,11.90
2017-11-22T03:36:26.739Z,10.83
2017-11-22T03:38:56.314Z,9.90
2017-11-22T03:41:25.139Z,10.03
2017-11-22T03:43:54.095Z,10.40
2017-11-22T03:46:22.964Z,10.30
2017-11-22T03:48:57.490Z,12.20
2017-11-22T03:51:32.573Z,12.13
2017-11-22T03:54:01.432Z,14.17
2017-11-22T03:56:30.334Z,13.57
2017-11-22T03:58:59.318Z,14.33
2017-11-22T04:01:28.471Z,13.75
2017-11-22T04:03:58.971Z,14.23
2017-11-22T04:06:28.700Z,12.90
2017-11-22T04:08:58.362Z,13.57
2017-11-22T04:11:29.857Z,11.70
2017-11-22T04:13:58.825Z,13.15
2017-11-22T04:16:28.515Z,13.20
2017-11-22T04:19:03.956Z,16.30
2017-11-22T04:21:32.852Z,14.13
2017-11-22T04:24:01.683Z,13.20
2017-11-22T04:26:30.627Z,11.90
2017-11-22T04:28:59.474Z,12.33
2017-11-22T04:31:29.140Z,12.60
2017-11-22T04:33:58.736Z,12.50
2017-11-22T04:36:28.355Z,12.80
2017-11-22T04:38:57.923Z,13.67
2017-11-22T04:41:27.564Z,13.63
2017-11-22T04:43:56.395Z,13.57
2017-11-22T04:46:25.223Z,12.00
2017-11-22T04:48:54.135Z,12.17
2017-11-22T04:51:22.967Z,12.57
2017-11-22T04:53:51.817Z,11.37
2017-11-22T04:56:20.654Z,10.90
2017-11-22T04:58:49.599Z,11.07
2017-11-22T05:01:18.490Z,11.03
2017-11-22T05:03:47.390Z,12.80
2017-11-22T05:06:16.231Z,9.23
2017-11-22T05:08:45.059Z,9.70
2017-11-22T05:11:13.951Z,10.00
2017-11-22T05:13:42.788Z,11.17
2017-11-22T05:16:11.755Z,9.40
2017-11-22T05:18:40.636Z,9.00
2017-11-22T05:21:09.511Z,9.37
2017-11-22T05:23:38.338Z,8.93
2017-11-22T05:26:07.301Z,10.57
2017-11-22T05:28:36.140Z,10.63
2017-11-22T05:31:04.971Z,10.20
2017-11-22T05:33:33.813Z,11.07
2017-11-22T05:36:03.503Z,12.10
2017-11-22T05:38:32.499Z,10.87
2017-11-22T05:41:01.351Z,11.93
2017-11-22T05:43:30.715Z,10.32
2017-11-22T05:46:00.296Z,12.90
2017-11-22T05:48:29.980Z,12.77
2017-11-22T05:50:59.559Z,11.73
2017-11-22T05:53:29.196Z,11.20
2017-11-22T05:55:58.051Z,15.03
2017-11-22T05:58:26.889Z,14.80
2017-11-22T06:00:57.749Z,11.97
2017-11-22T06:03:26.582Z,13.10
2017-11-22T06:05:55.435Z,14.50
2017-11-22T06:08:24.383Z,13.80
2017-11-22T06:10:53.222Z,12.83
2017-11-22T06:13:22.055Z,13.33
2017-11-22T06:15:50.960Z,12.10
2017-11-22T06:18:19.840Z,12.77
2017-11-22T06:20:49.560Z,10.73
2017-11-22T06:23:18.396Z,10.17
2017-11-22T06:25:47.230Z,9.40
2017-11-22T06:28:16.080Z,10.67
2017-11-22T06:30:46.880Z,10.33
2017-11-22T06:33:15.716Z,13.93
2017-11-22T06:35:44.552Z,11.70
2017-11-22T06:38:13.439Z,12.80
2017-11-22T06:40:42.319Z,12.50
2017-11-22T06:43:11.147Z,12.23
2017-11-22T06:45:40.066Z,17.23
2017-11-22T06:48:08.990Z,13.30
2017-11-22T06:50:37.830Z,11.77
2017-11-22T06:53:06.779Z,11.23
2017-11-22T06:55:35.611Z,10.47
2017-11-22T06:58:04.451Z,13.30
2017-11-22T07:00:33.292Z,16.60
2017-11-22T07:03:02.799Z,15.10
2017-11-22T07:05:32.569Z,17.37
2017-11-22T07:08:02.233Z,15.20
2017-11-22T07:10:31.814Z,12.93
2017-11-22T07:13:01.494Z,15.37
2017-11-22T07:15:31.097Z,14.93
2017-11-22T07:17:59.988Z,14.60
2017-11-22T07:20:28.817Z,13.83
2017-11-22T07:22:57.671Z,14.63
2017-11-22T07:25:26.558Z,13.13
2017-11-22T07:27:55.394Z,14.80
2017-11-22T07:30:24.231Z,17.10
2017-11-22T07:32:53.054Z,17.60
2017-11-22T07:35:27.757Z,15.07
2017-11-22T07:38:01.439Z,17.23
2017-11-22T07:40:30.300Z,15.57
2017-11-22T07:42:59.136Z,16.80
2017-11-22T07:45:28.035Z,14.40
2017-11-22T07:48:02.608Z,14.07
2017-11-22T07:50:32.263Z,13.30
2017-11-22T07:53:01.875Z,13.43
2017-11-22T07:55:30.703Z,14.93
2017-11-22T07:57:59.534Z,12.57
2017-11-22T08:00:28.371Z,12.00
2017-11-22T08:03:02.899Z,12.70
2017-11-22T08:05:32.484Z,12.77
2017-11-22T08:08:02.092Z,13.00
2017-11-22T08:10:30.921Z,14.57
2017-11-22T08:12:59.872Z,14.00
2017-11-22T08:15:28.710Z,14.77
2017-11-22T08:17:57.541Z,14.60
2017-11-22T08:20:26.440Z,15.63
2017-11-22T08:22:55.266Z,12.70
2017-11-22T08:25:24.116Z,15.80
2017-11-22T08:27:53.018Z,16.37
2017-11-22T08:30:21.902Z,14.07
2017-11-22T08:32:50.744Z,9.90
2017-11-22T08:35:19.673Z,11.50
2017-11-22T08:37:49.337Z,11.90
2017-11-22T08:40:18.176Z,12.10
2017-11-22T08:43:01.900Z,11.53
2017-11-22T08:45:30.814Z,10.50
2017-11-22T08:47:59.637Z,12.10
2017-11-22T08:50:28.483Z,11.97
2017-11-22T08:52:57.316Z,13.67
2017-11-22T08:55:32.045Z,15.20
2017-11-22T08:58:06.794Z,21.43
2017-11-22T09:00:35.635Z,20.00
2017-11-22T09:03:05.252Z,17.23
2017-11-22T09:05:37.779Z,16.00
2017-11-22T09:08:06.706Z,14.67
2017-11-22T09:10:35.579Z,15.17
2017-11-22T09:13:05.963Z,15.37
2017-11-22T09:15:35.285Z,16.98
2017-11-22T09:18:06.488Z,16.33
2017-11-22T09:20:35.403Z,17.17
2017-11-22T09:23:04.999Z,15.00
2017-11-22T09:25:36.517Z,14.00
2017-11-22T09:28:05.598Z,14.27
2017-11-22T09:30:35.175Z,14.33
2017-11-22T09:33:04.847Z,14.20
2017-11-22T09:35:34.427Z,13.00
2017-11-22T09:38:04.010Z,11.20
2017-11-22T09:40:32.855Z,13.30
2017-11-22T09:43:01.690Z,13.87
2017-11-22T09:45:30.523Z,14.57
2017-11-22T09:47:59.371Z,12.50
2017-11-22T09:50:28.198Z,14.50
2017-11-22T09:52:57.024Z,9.93
2017-11-22T09:55:25.992Z,10.37
2017-11-22T09:57:54.825Z,9.20
2017-11-22T10:00:23.750Z,8.93
2017-11-22T10:02:52.654Z,7.70
2017-11-22T10:05:21.546Z,7.03
2017-11-22T10:07:50.380Z,9.00
2017-11-22T10:10:19.213Z,8.27
2017-11-22T10:12:48.104Z,6.47
2017-11-22T10:15:16.935Z,8.03
2017-11-22T10:17:45.772Z,6.93
2017-11-22T10:20:19.591Z,7.20
2017-11-22T10:22:48.418Z,7.87
2017-11-22T10:25:20.118Z,6.93
2017-11-22T10:27:54.844Z,6.83
2017-11-22T10:30:34.377Z,6.40
2017-11-22T10:33:19.909Z,6.63
2017-11-22T10:35:48.739Z,6.47
2017-11-22T10:38:17.562Z,6.77
2017-11-22T10:40:46.395Z,5.90
2017-11-22T10:43:15.282Z,6.67
2017-11-22T10:45:44.102Z,6.50
2017-11-22T10:48:13.032Z,6.60
2017-11-22T10:50:41.856Z,7.47
2017-11-22T10:53:10.708Z,6.60
2017-11-22T10:55:39.539Z,5.90
2017-11-22T10:58:08.384Z,6.13
2017-11-22T11:00:37.585Z,6.80
2017-11-22T11:03:07.178Z,6.43
2017-11-22T11:05:36.743Z,6.73
2017-11-22T11:08:06.324Z,7.70
2017-11-22T11:10:35.910Z,8.30
2017-11-22T11:13:04.810Z,5.73
2017-11-22T11:15:33.637Z,6.37
2017-11-22T11:18:02.485Z,6.03
2017-11-22T11:20:31.375Z,7.13
2017-11-22T11:23:00.273Z,6.50
2017-11-22T11:25:29.111Z,6.43
2017-11-22T11:27:57.937Z,5.30
2017-11-22T11:30:26.760Z,5.03
2017-11-22T11:32:55.612Z,5.73
2017-11-22T11:35:30.315Z,5.60
2017-11-22T11:37:59.151Z,4.20
2017-11-22T11:40:28.030Z,5.20
2017-11-22T11:42:56.866Z,4.57
2017-11-22T11:45:26.065Z,5.40
2017-11-22T11:47:54.902Z,5.60
2017-11-22T11:50:23.800Z,5.97
2017-11-22T11:52:52.640Z,5.20
2017-11-22T11:55:21.463Z,6.07
2017-11-22T11:57:50.375Z,5.10
2017-11-22T12:00:19.212Z,4.83
2017-11-22T12:02:48.077Z,4.97
2017-11-22T12:05:17.672Z,4.97
2017-11-22T12:07:46.505Z,4.90
2017-11-22T12:10:15.339Z,6.00
2017-11-22T12:12:44.231Z,3.90
2017-11-22T12:15:13.079Z,4.63
2017-11-22T12:17:42.019Z,4.90
2017-11-22T12:20:10.843Z,4.70
2017-11-22T12:22:43.684Z,5.07
2017-11-22T12:25:12.508Z,5.10
2017-11-22T12:27:41.329Z,4.50
2017-11-22T12:30:10.200Z,4.37
2017-11-22T12:32:39.863Z,4.50
2017-11-22T12:35:09.530Z,4.87
2017-11-22T12:37:39.106Z,4.83
2017-11-22T12:40:08.680Z,5.73
2017-11-22T12:42:38.250Z,5.37
2017-11-22T12:45:07.100Z,5.20
2017-11-22T12:47:35.988Z,6.23
2017-11-22T12:50:04.816Z,6.43
2017-11-22T12:52:33.653Z,6.60
2017-11-22T12:55:02.476Z,4.47
2017-11-22T12:57:31.308Z,4.70
2017-11-22T13:00:00.236Z,4.83
2017-11-22T13:02:29.063Z,4.83
2017-11-22T13:04:57.888Z,5.80
2017-11-22T13:07:26.727Z,6.97
2017-11-22T13:09:55.552Z,4.90
2017-11-22T13:12:24.382Z,4.53
2017-11-22T13:14:53.216Z,4.30
2017-11-22T13:17:22.039Z,4.10
2017-11-22T13:19:51.051Z,3.53
2017-11-22T13:22:19.880Z,4.23
2017-11-22T13:24:48.736Z,4.17
2017-11-22T13:27:17.559Z,4.20
2017-11-22T13:29:46.407Z,4.30
2017-11-22T13:32:20.107Z,5.33
2017-11-22T13:34:49.006Z,5.60
2017-11-22T13:37:17.904Z,4.53
2017-11-22T13:39:46.777Z,4.13
2017-11-22T13:42:15.647Z,5.60
2017-11-22T13:44:44.460Z,5.53
2017-11-22T13:47:13.285Z,5.57
2017-11-22T13:49:42.129Z,7.37
2017-11-22T13:52:12.006Z,10.70
2017-11-22T13:54:41.591Z,9.40
2017-11-22T13:57:11.216Z,9.80
2017-11-22T13:59:40.884Z,11.27
2017-11-22T14:02:10.460Z,9.30
2017-11-22T14:04:39.291Z,7.20
2017-11-22T14:07:08.123Z,7.90
2017-11-22T14:09:36.955Z,9.70
2017-11-22T14:12:05.798Z,11.10
2017-11-22T14:14:34.663Z,8.37
2017-11-22T14:17:03.483Z,8.27
2017-11-22T14:19:32.327Z,9.60
2017-11-22T14:22:01.159Z,8.47
2017-11-22T14:24:29.996Z,9.53
2017-11-22T14:26:58.843Z,8.20
2017-11-22T14:29:27.685Z,7.70
2017-11-22T14:31:56.579Z,7.63
2017-11-22T14:34:25.417Z,7.40
2017-11-22T14:36:54.355Z,8.40
2017-11-22T14:39:23.223Z,8.47
2017-11-22T14:41:52.139Z,7.27
2017-11-22T14:44:21.026Z,6.80
2017-11-22T14:46:49.918Z,6.70
2017-11-22T14:49:18.817Z,7.73
2017-11-22T14:51:47.643Z,8.17
2017-11-22T14:54:16.485Z,7.80
2017-11-22T14:56:45.316Z,8.13
2017-11-22T14:59:14.156Z,12.63
2017-11-22T15:01:43.783Z,14.20
2017-11-22T15:04:13.370Z,13.90
2017-11-22T15:06:42.986Z,8.70
2017-11-22T15:09:12.648Z,13.90
2017-11-22T15:11:42.312Z,10.47
2017-11-22T15:14:11.200Z,8.73
2017-11-22T15:16:40.088Z,9.27
2017-11-22T15:19:08.931Z,8.47
2017-11-22T15:21:37.768Z,8.30
2017-11-22T15:24:06.603Z,10.23
2017-11-22T15:26:35.459Z,13.10
2017-11-22T15:29:04.341Z,27.80
2017-11-22T15:31:33.241Z,10.30
2017-11-22T15:34:02.127Z,11.13
2017-11-22T15:36:30.952Z,9.43
2017-11-22T15:38:59.786Z,9.83
2017-11-22T15:41:28.636Z,10.00
2017-11-22T15:43:57.467Z,10.27
2017-11-22T15:46:26.388Z,10.13
2017-11-22T15:48:55.277Z,12.07
2017-11-22T15:51:24.102Z,9.97
2017-11-22T15:53:52.929Z,9.37
2017-11-22T15:56:21.766Z,8.17
2017-11-22T15:58:50.622Z,7.90
2017-11-22T16:01:19.442Z,7.90
2017-11-22T16:03:48.274Z,13.17
2017-11-22T16:06:17.104Z,14.33
2017-11-22T16:08:45.940Z,13.20
2017-11-22T16:11:15.184Z,13.20
2017-11-22T16:13:44.792Z,13.13
2017-11-22T16:16:14.372Z,13.03
2017-11-22T16:18:44.012Z,15.83
2017-11-22T16:21:13.657Z,16.97
2017-11-22T16:23:42.495Z,14.60
2017-11-22T16:26:11.399Z,10.97
2017-11-22T16:28:40.235Z,10.00
2017-11-22T16:31:09.063Z,11.10
2017-11-22T16:33:37.907Z,9.93
2017-11-22T16:36:06.756Z,10.10
2017-11-22T16:38:35.587Z,9.50
2017-11-22T16:41:04.430Z,10.53
2017-11-22T16:43:33.288Z,10.13
2017-11-22T16:46:02.203Z,13.80
2017-11-22T16:48:31.041Z,31.27
2017-11-22T16:50:59.890Z,11.00
2017-11-22T16:53:28.728Z,11.33
2017-11-22T16:55:57.617Z,10.60
2017-11-22T16:58:26.451Z,11.50
2017-11-22T17:00:55.366Z,12.83
2017-11-22T17:03:24.205Z,15.70
2017-11-22T17:05:53.037Z,18.63
2017-11-22T17:08:21.880Z,19.10
2017-11-22T17:10:50.719Z,19.23
2017-11-22T17:13:19.571Z,19.40
2017-11-22T17:15:48.407Z,18.03
2017-11-22T17:18:17.256Z,16.50
2017-11-22T17:20:46.283Z,14.50
2017-11-22T17:23:16.016Z,15.80
2017-11-22T17:25:45.699Z,16.43
2017-11-22T17:28:15.278Z,24.73
2017-11-22T17:30:44.878Z,18.73
2017-11-22T17:33:14.447Z,17.20
2017-11-22T17:35:43.355Z,16.93
2017-11-22T17:38:12.227Z,26.53
2017-11-22T17:40:41.061Z,24.67
2017-11-22T17:43:10.002Z,17.80
2017-11-22T17:45:38.846Z,15.60
2017-11-22T17:48:07.686Z,17.83
2017-11-22T17:50:36.520Z,16.30
2017-11-22T17:53:05.456Z,15.70
2017-11-22T17:55:34.344Z,27.60
2017-11-22T17:58:03.240Z,19.60
2017-11-22T18:00:32.084Z,18.10
2017-11-22T18:03:00.919Z,20.13
2017-11-22T18:05:29.753Z,22.00
2017-11-22T18:07:58.604Z,17.80
2017-11-22T18:10:27.430Z,16.13
2017-11-22T18:12:56.260Z,17.93
2017-11-22T18:15:25.117Z,17.47
2017-11-22T18:17:53.956Z,19.40
2017-11-22T18:20:22.784Z,18.07
2017-11-22T18:22:51.627Z,18.47
2017-11-22T18:25:20.475Z,26.73
2017-11-22T18:27:49.946Z,21.13
2017-11-22T18:30:18.797Z,19.60
2017-11-22T18:32:47.640Z,16.97
2017-11-22T18:35:17.276Z,19.10
2017-11-22T18:37:46.923Z,17.23
2017-11-22T18:40:16.503Z,16.30
2017-11-22T18:42:46.097Z,17.13
2017-11-22T18:45:15.815Z,17.83
2017-11-22T18:47:44.753Z,18.77
2017-11-22T18:50:13.602Z,20.70
2017-11-22T18:52:42.516Z,21.37
2017-11-22T18:55:11.347Z,20.40
2017-11-22T18:57:40.206Z,21.13
2017-11-22T19:00:15.156Z,20.07
2017-11-22T19:02:43.993Z,23.47
2017-11-22T19:05:12.832Z,23.23
2017-11-22T19:07:41.708Z,25.10
2017-11-22T19:10:10.530Z,24.10
2017-11-22T19:12:39.366Z,23.73
2017-11-22T19:15:08.279Z,21.87
2017-11-22T19:17:37.168Z,19.63
2017-11-22T19:20:06.064Z,17.50
2017-11-22T19:22:34.903Z,18.67
2017-11-22T19:25:03.740Z,17.60
2017-11-22T19:27:32.583Z,17.50
2017-11-22T19:30:01.464Z,17.03
2017-11-22T19:32:30.307Z,15.87
2017-11-22T19:34:59.142Z,15.77
2017-11-22T19:37:27.988Z,15.97
2017-11-22T19:39:56.833Z,15.33
2017-11-22T19:42:25.667Z,20.40
2017-11-22T19:44:54.519Z,15.70
2017-11-22T19:47:23.359Z,15.20
2017-11-22T19:49:52.194Z,14.97
2017-11-22T19:52:21.051Z,13.67
2017-11-22T19:54:49.892Z,15.23
2017-11-22T19:57:19.181Z,13.93
2017-11-22T19:59:48.835Z,14.40
2017-11-22T20:02:18.409Z,16.10
2017-11-22T20:04:49.356Z,16.33
2017-11-22T20:07:25.356Z,17.63
2017-11-22T20:09:55.371Z,15.77
2017-11-22T20:12:24.568Z,15.87
2017-11-22T20:14:53.763Z,15.07
2017-11-22T20:17:22.964Z,15.80
2017-11-22T20:19:51.916Z,15.40
2017-11-22T20:22:20.825Z,16.50
2017-11-22T20:24:49.999Z,18.63
2017-11-22T20:27:19.859Z,17.23
2017-11-22T20:29:49.716Z,15.30
2017-11-22T20:32:19.687Z,16.90
2017-11-22T20:34:49.943Z,16.37
2017-11-22T20:37:20.458Z,16.77
2017-11-22T20:39:50.915Z,17.50
2017-11-22T20:42:20.411Z,18.10
2017-11-22T20:44:50.201Z,18.30
2017-11-22T20:47:20.080Z,19.60
2017-11-22T20:49:49.668Z,17.30
2017-11-22T20:52:19.291Z,16.60
2017-11-22T20:54:48.960Z,17.70
2017-11-22T20:57:18.739Z,16.53
2017-11-22T20:59:47.639Z,14.97
2017-11-22T21:02:16.499Z,15.43
2017-11-22T21:04:45.330Z,19.43
2017-11-22T21:07:14.185Z,21.60
2017-11-22T21:09:43.081Z,20.47
2017-11-22T21:12:11.924Z,21.40
2017-11-22T21:14:40.766Z,24.87
2017-11-22T21:17:09.634Z,21.70
2017-11-22T21:19:38.471Z,28.40
2017-11-22T21:22:07.314Z,21.40
2017-11-22T21:24:36.162Z,16.67
2017-11-22T21:27:04.996Z,17.20
2017-11-22T21:29:33.920Z,16.00
2017-11-22T21:32:02.764Z,18.60
2017-11-22T21:34:31.690Z,15.67
2017-11-22T21:37:00.526Z,18.07
2017-11-22T21:39:29.447Z,23.77
2017-11-22T21:41:58.351Z,24.60
2017-11-22T21:44:27.183Z,20.80
2017-11-22T21:46:56.031Z,21.37
2017-11-22T21:49:24.859Z,19.37
2017-11-22T21:51:53.700Z,18.53
2017-11-22T21:54:22.542Z,16.73
2017-11-22T21:56:52.005Z,16.58
2017-11-22T21:59:21.635Z,20.77
2017-11-22T22:01:51.230Z,23.57
2017-11-22T22:04:20.841Z,18.73
2017-11-22T22:06:50.489Z,16.43
2017-11-22T22:09:19.430Z,20.03
2017-11-22T22:11:48.273Z,18.67
2017-11-22T22:14:17.104Z,18.57
2017-11-22T22:16:45.950Z,20.93
2017-11-22T22:19:14.792Z,19.67
2017-11-22T22:21:43.629Z,21.40
2017-11-22T22:24:12.480Z,22.77
2017-11-22T22:26:41.316Z,22.57
2017-11-22T22:29:10.153Z,20.40
2017-11-22T22:31:38.997Z,17.53
2017-11-22T22:34:07.942Z,17.63
2017-11-22T22:36:37.107Z,17.43
2017-11-22T22:39:05.944Z,17.10
2017-11-22T22:41:34.843Z,16.47
2017-11-22T22:44:03.695Z,16.77
2017-11-22T22:46:32.587Z,14.93
2017-11-22T22:49:01.419Z,16.07
2017-11-22T22:51:30.255Z,16.00
2017-11-22T22:53:59.162Z,15.10
2017-11-22T22:56:27.998Z,16.30
2017-11-22T22:58:56.831Z,15.80
2017-11-22T23:01:25.668Z,17.13
2017-11-22T23:03:54.503Z,15.37
2017-11-22T23:06:23.871Z,16.45
2017-11-22T23:08:53.464Z,16.97
2017-11-22T23:11:23.046Z,17.60
2017-11-22T23:13:52.648Z,17.90
2017-11-22T23:16:22.342Z,17.53
2017-11-22T23:18:51.241Z,17.50
2017-11-22T23:21:20.070Z,16.00
2017-11-22T23:23:48.908Z,15.57
2017-11-22T23:26:17.812Z,16.83
2017-11-22T23:28:46.691Z,15.73
2017-11-22T23:31:15.588Z,14.93
2017-11-22T23:33:44.570Z,16.20
2017-11-22T23:36:13.436Z,16.40
2017-11-22T23:38:42.285Z,14.60
2017-11-22T23:41:11.115Z,13.80
2017-11-22T23:43:40.053Z,13.53
2017-11-22T23:46:08.907Z,14.40
2017-11-22T23:48:37.755Z,13.10
2017-11-22T23:51:06.619Z,13.47
2017-11-22T23:53:35.479Z,11.90
2017-11-22T23:56:04.324Z,12.30
2017-11-22T23:58:33.187Z,12.27
